createdAt,value
2019-03-10T00:03:00.377Z,57.00
2019-03-10T00:05:30.007Z,56.70
2019-03-10T00:07:59.865Z,56.70
2019-03-10T00:10:29.533Z,56.70
2019-03-10T00:12:59.126Z,56.70
2019-03-10T00:15:28.863Z,56.70
2019-03-10T00:17:58.635Z,56.90
2019-03-10T00:20:28.404Z,56.90
2019-03-10T00:22:58.010Z,56.70
2019-03-10T00:25:27.730Z,56.60
2019-03-10T00:27:57.237Z,56.80
2019-03-10T00:30:27.206Z,57.10
2019-03-10T00:32:57.159Z,57.40
2019-03-10T00:38:27.215Z,56.70
2019-03-10T00:44:00.937Z,58.20
2019-03-10T00:58:07.043Z,58.70
2019-03-10T01:03:27.775Z,59.40
2019-03-10T01:08:52.277Z,59.50
2019-03-10T01:17:09.123Z,58.90
2019-03-10T01:22:33.894Z,59.70
2019-03-10T01:28:01.382Z,60.10
2019-03-10T01:33:25.865Z,59.90
2019-03-10T01:38:52.205Z,59.20
2019-03-10T01:44:19.820Z,59.20
2019-03-10T01:52:42.662Z,59.20
2019-03-10T01:55:24.112Z,59.60
2019-03-10T02:00:49.807Z,59.70
2019-03-10T02:12:07.933Z,62.00
2019-03-10T02:14:49.343Z,61.70
2019-03-10T02:17:30.772Z,60.60
2019-03-10T02:20:12.191Z,60.20
2019-03-10T02:28:34.051Z,60.60
2019-03-10T02:31:03.756Z,60.10
2019-03-10T02:33:47.365Z,60.10
2019-03-10T02:39:12.934Z,61.00
2019-03-10T02:47:47.633Z,62.40
2019-03-10T02:50:29.023Z,62.00
2019-03-10T02:53:10.739Z,62.20
2019-03-10T02:55:40.723Z,61.40
2019-03-10T02:58:29.337Z,60.60
2019-03-10T03:01:18.020Z,60.10
2019-03-10T03:06:59.360Z,60.10
2019-03-10T03:12:40.765Z,60.70
2019-03-10T03:18:22.144Z,60.50
2019-03-10T03:27:09.931Z,61.90
2019-03-10T03:29:58.514Z,61.60
2019-03-10T03:35:35.612Z,61.50
2019-03-10T03:38:05.529Z,61.50
2019-03-10T03:40:55.943Z,62.00
2019-03-10T03:52:44.709Z,69.50
2019-03-10T03:55:14.421Z,70.40
2019-03-10T03:57:46.306Z,70.50
2019-03-10T04:00:16.439Z,71.10
2019-03-10T04:02:45.962Z,73.70
2019-03-10T04:05:16.408Z,74.00
2019-03-10T04:07:45.981Z,75.70
2019-03-10T04:10:15.506Z,76.00
2019-03-10T04:12:45.019Z,76.30
2019-03-10T04:15:14.967Z,78.30
2019-03-10T04:17:44.512Z,79.50
2019-03-10T04:20:14.494Z,80.60
2019-03-10T04:22:43.979Z,81.80
2019-03-10T04:25:13.919Z,81.40
2019-03-10T04:27:43.475Z,80.10
2019-03-10T04:30:13.211Z,80.10
2019-03-10T04:32:42.760Z,81.00
2019-03-10T04:35:12.291Z,82.40
2019-03-10T04:37:41.769Z,83.20
2019-03-10T04:40:11.339Z,82.50
2019-03-10T04:42:40.802Z,81.60
2019-03-10T04:45:10.272Z,82.00
2019-03-10T04:47:39.863Z,83.20
2019-03-10T04:50:09.977Z,84.00
2019-03-10T04:52:39.911Z,84.50
2019-03-10T04:55:27.655Z,83.90
2019-03-10T04:57:59.735Z,83.60
2019-03-10T05:00:30.043Z,83.30
2019-03-10T05:02:59.601Z,83.10
2019-03-10T05:05:29.591Z,82.90
2019-03-10T05:07:59.151Z,82.80
2019-03-10T05:10:28.700Z,83.30
2019-03-10T05:12:58.261Z,82.90
2019-03-10T05:15:28.160Z,83.40
2019-03-10T05:17:57.699Z,83.30
2019-03-10T05:20:27.231Z,83.30
2019-03-10T05:23:53.136Z,83.60
2019-03-10T05:26:23.201Z,84.30
2019-03-10T05:28:52.659Z,83.10
2019-03-10T05:31:22.143Z,83.20
2019-03-10T05:33:52.836Z,84.70
2019-03-10T05:36:22.429Z,84.50
2019-03-10T05:38:52.065Z,84.40
2019-03-10T05:41:21.680Z,86.30
2019-03-10T05:43:51.727Z,87.00
2019-03-10T05:46:21.231Z,87.80
2019-03-10T05:48:50.779Z,87.40
2019-03-10T05:51:20.251Z,88.80
2019-03-10T05:53:50.295Z,88.40
2019-03-10T05:56:19.763Z,88.70
2019-03-10T05:58:49.241Z,88.50
2019-03-10T06:01:18.883Z,88.00
2019-03-10T06:03:48.363Z,89.70
2019-03-10T06:06:17.920Z,89.80
2019-03-10T06:08:47.451Z,89.60
2019-03-10T06:11:17.023Z,88.50
2019-03-10T06:13:46.540Z,88.90
2019-03-10T06:16:16.100Z,89.20
2019-03-10T06:18:45.670Z,89.30
2019-03-10T06:21:15.538Z,89.40
2019-03-10T06:24:04.063Z,89.80
2019-03-10T06:26:33.486Z,88.90
2019-03-10T06:29:02.928Z,88.70
2019-03-10T06:31:32.511Z,88.50
2019-03-10T06:34:02.053Z,88.00
2019-03-10T06:36:31.920Z,88.00
2019-03-10T06:39:01.439Z,88.50
2019-03-10T06:41:30.929Z,89.00
2019-03-10T06:44:00.467Z,88.90
2019-03-10T06:46:30.032Z,89.70
2019-03-10T06:48:59.612Z,90.00
2019-03-10T06:51:29.175Z,89.90
2019-03-10T06:53:58.636Z,90.00
2019-03-10T06:56:28.204Z,90.00
2019-03-10T06:59:02.273Z,90.00
2019-03-10T07:01:32.083Z,90.00
2019-03-10T07:04:01.790Z,90.20
2019-03-10T07:06:31.368Z,90.20
2019-03-10T07:09:00.827Z,90.20
2019-03-10T07:11:30.342Z,90.20
2019-03-10T07:13:59.825Z,90.30
2019-03-10T07:16:29.253Z,90.20
2019-03-10T07:18:58.866Z,90.30
2019-03-10T07:21:28.423Z,90.20
2019-03-10T07:23:57.947Z,90.30
2019-03-10T07:26:27.737Z,90.40
2019-03-10T07:29:08.354Z,90.30
2019-03-10T07:31:51.479Z,90.50
2019-03-10T07:34:32.920Z,90.50
2019-03-10T07:37:23.991Z,90.50
2019-03-10T07:40:15.599Z,90.40
2019-03-10T07:43:07.076Z,90.60
2019-03-10T07:45:51.355Z,90.70
2019-03-10T07:48:55.220Z,90.90
2019-03-10T07:51:58.657Z,90.80
2019-03-10T07:54:36.152Z,90.80
2019-03-10T07:57:42.907Z,90.90
2019-03-10T08:00:33.932Z,90.80
2019-03-10T08:03:13.575Z,90.60
2019-03-10T08:06:00.880Z,90.70
2019-03-10T08:08:40.881Z,90.70
2019-03-10T08:11:15.976Z,91.00
2019-03-10T08:14:06.385Z,90.70
2019-03-10T08:17:03.812Z,90.70
2019-03-10T08:19:56.223Z,90.40
2019-03-10T08:22:59.876Z,90.60
2019-03-10T08:25:51.955Z,90.70
2019-03-10T08:28:58.662Z,90.70
2019-03-10T08:31:43.715Z,90.70
2019-03-10T08:34:44.423Z,90.80
2019-03-10T08:37:32.858Z,91.00
2019-03-10T08:40:30.354Z,91.00
2019-03-10T08:43:24.615Z,90.70
2019-03-10T08:46:13.005Z,90.60
2019-03-10T08:48:48.410Z,90.70
2019-03-10T08:51:33.068Z,90.90
2019-03-10T08:54:21.663Z,90.50
2019-03-10T08:57:08.076Z,90.40
2019-03-10T09:00:11.616Z,90.50
2019-03-10T09:03:09.640Z,90.50
2019-03-10T09:05:57.099Z,90.70
2019-03-10T09:08:44.435Z,90.90
2019-03-10T09:11:32.755Z,90.50
2019-03-10T09:14:36.583Z,90.70
2019-03-10T09:17:33.007Z,90.80
2019-03-10T09:20:15.333Z,90.50
2019-03-10T09:23:02.525Z,90.80
2019-03-10T09:25:54.583Z,90.70
2019-03-10T09:28:34.216Z,90.80
2019-03-10T09:31:21.986Z,91.00
2019-03-10T09:34:19.449Z,91.30
2019-03-10T09:37:19.810Z,91.00
2019-03-10T09:40:14.438Z,91.40
2019-03-10T09:43:01.898Z,91.50
2019-03-10T09:45:40.990Z,91.20
2019-03-10T09:48:35.447Z,91.40
2019-03-10T09:51:22.563Z,91.30
2019-03-10T09:54:11.691Z,91.20
2019-03-10T09:57:11.605Z,91.30
2019-03-10T09:59:58.788Z,91.90
2019-03-10T10:02:47.224Z,91.20
2019-03-10T10:20:36.694Z,89.30
2019-03-10T10:23:44.068Z,89.50
2019-03-10T10:26:39.604Z,86.30
2019-03-10T10:33:18.206Z,86.40
2019-03-10T10:42:27.301Z,83.20
2019-03-10T10:48:32.635Z,82.50
2019-03-10T10:54:55.698Z,82.50
2019-03-10T10:58:06.620Z,81.80
2019-03-10T11:01:04.023Z,81.80
2019-03-10T11:04:11.602Z,80.20
2019-03-10T11:13:19.607Z,79.50
2019-03-10T11:16:27.208Z,80.10
2019-03-10T11:19:02.931Z,80.30
2019-03-10T11:21:51.357Z,79.30
2019-03-10T11:24:58.859Z,81.30
2019-03-10T11:27:47.502Z,79.10
2019-03-10T11:30:36.138Z,78.20
2019-03-10T11:33:27.444Z,76.90
2019-03-10T11:36:18.387Z,76.00
2019-03-10T11:45:27.845Z,71.20
2019-03-10T11:54:23.327Z,70.80
2019-03-10T12:03:02.253Z,76.00
2019-03-10T12:08:54.762Z,76.20
2019-03-10T12:11:36.281Z,76.70
2019-03-10T12:14:19.222Z,71.40
2019-03-10T12:28:18.955Z,69.80
2019-03-10T12:39:56.240Z,62.10
2019-03-10T12:48:39.522Z,58.90
2019-03-10T12:51:28.813Z,59.70
2019-03-10T12:54:45.198Z,60.00
2019-03-10T12:57:10.927Z,58.70
2019-03-10T12:59:59.477Z,59.00
2019-03-10T13:02:48.094Z,57.70
2019-03-10T13:08:52.339Z,58.00
2019-03-10T13:17:36.547Z,54.20
2019-03-10T13:20:28.468Z,52.30
2019-03-10T13:23:16.176Z,51.60
2019-03-10T13:26:04.741Z,49.00
2019-03-10T13:28:53.348Z,50.00
2019-03-10T13:31:37.913Z,50.00
2019-03-10T13:34:19.351Z,46.90
2019-03-10T13:48:37.651Z,42.60
2019-03-10T14:02:42.013Z,43.90
2019-03-10T14:08:21.956Z,43.20
2019-03-10T14:23:10.798Z,43.80
2019-03-10T14:29:14.056Z,44.40
2019-03-10T14:32:23.117Z,45.10
2019-03-10T14:35:11.934Z,44.70
2019-03-10T14:40:55.329Z,44.20
2019-03-10T14:46:29.869Z,45.10
2019-03-10T14:49:23.445Z,44.20
2019-03-10T14:55:01.734Z,40.10
2019-03-10T14:57:43.162Z,39.70
2019-03-10T15:06:10.060Z,37.20
2019-03-10T15:08:51.191Z,36.70
2019-03-10T15:19:59.986Z,31.60
2019-03-10T15:22:29.547Z,29.20
2019-03-10T15:24:59.125Z,28.00
2019-03-10T15:27:28.714Z,27.00
2019-03-10T15:29:58.271Z,26.30
2019-03-10T15:32:28.126Z,25.50
2019-03-10T15:34:57.747Z,25.80
2019-03-10T15:37:27.249Z,24.80
2019-03-10T15:39:59.028Z,24.90
2019-03-10T15:42:28.659Z,25.30
2019-03-10T15:44:58.217Z,25.70
2019-03-10T15:47:27.772Z,26.30
2019-03-10T15:49:57.326Z,27.40
2019-03-10T15:52:26.883Z,27.60
2019-03-10T15:54:56.460Z,27.80
2019-03-10T15:57:25.999Z,26.70
2019-03-10T15:59:55.465Z,26.50
2019-03-10T16:02:50.959Z,25.80
2019-03-10T16:05:21.006Z,26.40
2019-03-10T16:07:50.573Z,26.90
2019-03-10T16:10:20.173Z,26.90
2019-03-10T16:12:49.748Z,28.50
2019-03-10T16:15:20.095Z,29.10
2019-03-10T16:17:49.851Z,30.20
2019-03-10T16:20:19.481Z,31.50
2019-03-10T16:22:49.087Z,33.00
2019-03-10T16:25:18.826Z,34.30
2019-03-10T16:27:49.890Z,34.80
2019-03-10T16:30:19.706Z,35.20
2019-03-10T16:32:49.432Z,35.00
2019-03-10T16:35:19.228Z,35.30
2019-03-10T16:37:48.680Z,35.70
2019-03-10T16:40:18.194Z,36.30
2019-03-10T16:42:47.720Z,35.90
2019-03-10T16:45:19.127Z,34.60
2019-03-10T16:47:48.660Z,34.00
2019-03-10T16:50:18.865Z,34.00
2019-03-10T16:52:48.490Z,33.20
2019-03-10T16:55:18.499Z,33.70
2019-03-10T16:57:48.348Z,34.40
2019-03-10T17:00:19.498Z,34.50
2019-03-10T17:02:49.703Z,34.50
2019-03-10T17:05:19.309Z,35.00
2019-03-10T17:07:49.270Z,35.40
2019-03-10T17:10:18.970Z,35.40
2019-03-10T17:12:48.577Z,35.70
2019-03-10T17:15:18.242Z,36.00
2019-03-10T17:17:47.789Z,36.50
2019-03-10T17:20:17.362Z,37.00
2019-03-10T17:22:47.005Z,37.90
2019-03-10T17:25:16.578Z,37.80
2019-03-10T17:27:46.117Z,38.40
2019-03-10T17:30:17.663Z,37.80
2019-03-10T17:32:47.197Z,38.50
2019-03-10T17:35:17.454Z,38.60
2019-03-10T17:37:48.580Z,38.20
2019-03-10T17:40:18.589Z,38.60
2019-03-10T17:42:48.253Z,38.80
2019-03-10T17:45:18.283Z,38.90
2019-03-10T17:47:47.877Z,39.70
2019-03-10T17:50:17.688Z,42.60
2019-03-10T17:52:47.798Z,45.90
2019-03-10T17:55:17.543Z,49.00
2019-03-10T17:57:47.112Z,51.80
2019-03-10T18:00:18.573Z,55.50
2019-03-10T18:02:48.164Z,58.30
2019-03-10T18:05:17.667Z,60.60
2019-03-10T18:07:47.297Z,61.90
2019-03-10T18:10:16.926Z,64.70
2019-03-10T18:12:46.377Z,69.40
2019-03-10T18:15:21.363Z,68.40
2019-03-10T18:17:59.655Z,69.40
2019-03-10T18:20:29.705Z,68.80
2019-03-10T18:22:59.572Z,67.70
2019-03-10T18:25:29.097Z,67.10
2019-03-10T18:27:58.701Z,68.40
2019-03-10T18:30:28.255Z,68.40
2019-03-10T18:32:57.784Z,67.70
2019-03-10T18:35:27.413Z,68.40
2019-03-10T18:37:56.905Z,68.70
2019-03-10T18:40:26.418Z,68.80
2019-03-10T18:42:56.023Z,67.80
2019-03-10T18:45:25.588Z,68.30
2019-03-10T18:47:55.083Z,68.80
2019-03-10T18:50:24.659Z,69.20
2019-03-10T18:52:54.195Z,67.50
2019-03-10T18:55:24.169Z,66.60
2019-03-10T18:57:53.653Z,66.60
2019-03-10T19:00:23.538Z,66.60
2019-03-10T19:02:55.375Z,65.90
2019-03-10T19:05:25.012Z,66.50
2019-03-10T19:07:55.659Z,66.40
2019-03-10T19:10:25.377Z,66.00
2019-03-10T19:12:54.963Z,65.10
2019-03-10T19:15:24.543Z,66.20
2019-03-10T19:17:54.133Z,64.00
2019-03-10T19:20:23.672Z,63.20
2019-03-10T19:22:53.273Z,63.90
2019-03-10T19:25:22.980Z,64.00
2019-03-10T19:27:52.665Z,63.90
2019-03-10T19:30:22.247Z,63.80
2019-03-10T19:32:52.043Z,63.70
2019-03-10T19:35:22.675Z,64.40
2019-03-10T19:37:52.268Z,64.30
2019-03-10T19:40:21.836Z,66.40
2019-03-10T19:42:51.366Z,67.00
2019-03-10T19:45:20.867Z,69.00
2019-03-10T19:47:50.430Z,70.30
2019-03-10T19:50:20.070Z,71.70
2019-03-10T19:52:49.627Z,72.90
2019-03-10T19:55:19.359Z,72.80
2019-03-10T19:57:48.941Z,72.80
2019-03-10T20:00:18.800Z,75.00
2019-03-10T20:02:48.449Z,75.00
2019-03-10T20:05:18.097Z,72.90
2019-03-10T20:07:47.646Z,72.10
2019-03-10T20:10:17.238Z,71.90
2019-03-10T20:12:47.245Z,72.00
2019-03-10T20:15:17.144Z,72.40
2019-03-10T20:17:46.625Z,73.00
2019-03-10T20:20:17.292Z,74.90
2019-03-10T20:22:46.847Z,71.50
2019-03-10T20:25:16.414Z,71.90
2019-03-10T20:27:46.096Z,72.60
2019-03-10T20:30:17.569Z,71.90
2019-03-10T20:32:47.097Z,71.30
2019-03-10T20:35:16.644Z,72.30
2019-03-10T20:37:46.216Z,71.40
2019-03-10T20:40:16.553Z,71.40
2019-03-10T20:42:46.125Z,70.80
2019-03-10T20:45:15.798Z,71.60
2019-03-10T20:47:45.731Z,70.70
2019-03-10T20:50:15.976Z,70.40
2019-03-10T20:52:45.919Z,71.00
2019-03-10T20:55:15.815Z,71.20
2019-03-10T20:57:45.831Z,70.70
2019-03-10T21:00:17.130Z,71.80
2019-03-10T21:02:46.745Z,71.00
2019-03-10T21:05:16.272Z,70.40
2019-03-10T21:07:45.870Z,70.00
2019-03-10T21:10:15.884Z,69.60
2019-03-10T21:12:45.412Z,69.10
2019-03-10T21:15:16.208Z,68.60
2019-03-10T21:17:46.121Z,67.70
2019-03-10T21:20:16.698Z,66.70
2019-03-10T21:22:46.216Z,65.60
2019-03-10T21:25:17.773Z,66.90
2019-03-10T21:27:47.224Z,66.90
2019-03-10T21:30:18.575Z,67.30
2019-03-10T21:32:48.103Z,67.30
2019-03-10T21:35:18.340Z,68.20
2019-03-10T21:37:48.048Z,68.10
2019-03-10T21:40:19.780Z,68.30
2019-03-10T21:42:49.611Z,68.40
2019-03-10T21:45:19.165Z,68.40
2019-03-10T21:47:48.678Z,68.30
2019-03-10T21:50:18.231Z,68.00
2019-03-10T21:52:47.688Z,68.20
2019-03-10T21:55:17.209Z,68.20
2019-03-10T21:57:46.681Z,67.80
2019-03-10T22:00:16.258Z,67.40
2019-03-10T22:02:45.911Z,67.30
2019-03-10T22:05:15.451Z,66.50
2019-03-10T22:07:45.250Z,66.00
2019-03-10T22:10:25.798Z,64.80
2019-03-10T22:12:46.667Z,65.50
2019-03-10T22:15:16.260Z,66.00
2019-03-10T22:17:45.740Z,65.90
2019-03-10T22:20:15.476Z,66.00
2019-03-10T22:22:49.120Z,66.20
2019-03-10T22:25:17.255Z,65.40
2019-03-10T22:27:46.748Z,65.40
2019-03-10T22:30:16.734Z,65.90
2019-03-10T22:32:46.348Z,65.90
2019-03-10T22:35:15.903Z,66.80
2019-03-10T22:37:45.364Z,65.80
2019-03-10T22:40:15.004Z,66.70
2019-03-10T22:42:44.649Z,65.90
2019-03-10T22:45:14.438Z,64.60
2019-03-10T22:47:44.131Z,64.10
2019-03-10T22:50:14.064Z,63.10
2019-03-10T22:52:43.665Z,62.50
2019-03-10T22:55:13.419Z,62.90
2019-03-10T22:57:42.920Z,63.60
2019-03-10T23:00:18.024Z,63.50
2019-03-10T23:02:47.542Z,62.80
2019-03-10T23:05:17.016Z,62.90
2019-03-10T23:07:46.459Z,63.20
2019-03-10T23:10:15.923Z,63.10
2019-03-10T23:12:45.632Z,62.80
2019-03-10T23:15:15.282Z,62.70
2019-03-10T23:17:44.788Z,61.90
2019-03-10T23:20:14.359Z,61.90
2019-03-10T23:22:43.836Z,62.90
2019-03-10T23:25:13.398Z,61.80
2019-03-10T23:27:42.900Z,61.90
2019-03-10T23:30:13.864Z,61.90
2019-03-10T23:32:43.755Z,61.70
2019-03-10T23:35:13.307Z,61.20
2019-03-10T23:37:42.741Z,61.30
2019-03-10T23:40:12.498Z,61.00
2019-03-10T23:42:42.020Z,61.30
2019-03-10T23:45:12.111Z,61.50
2019-03-10T23:47:41.645Z,62.40
2019-03-10T23:50:11.629Z,63.30
2019-03-10T23:52:41.205Z,63.10
2019-03-10T23:55:10.769Z,63.10
2019-03-10T23:57:40.296Z,63.90
